createdAt,value
2023-03-11T00:02:33.402Z,4.6
2023-03-11T00:07:33.390Z,4.6
2023-03-11T00:12:33.392Z,4.5
2023-03-11T00:17:33.417Z,4.5
2023-03-11T00:22:33.388Z,4.4
2023-03-11T00:27:33.409Z,4.3
2023-03-11T00:32:33.429Z,4.2
2023-03-11T00:37:33.398Z,4.2
2023-03-11T00:42:33.395Z,4.2
2023-03-11T00:47:33.384Z,4.1
2023-03-11T00:52:33.495Z,4
2023-03-11T00:57:33.406Z,4
2023-03-11T01:02:33.388Z,4
2023-03-11T01:07:33.386Z,3.9
2023-03-11T01:12:33.403Z,3.8
2023-03-11T01:17:33.425Z,3.9
2023-03-11T01:22:33.384Z,3.8
2023-03-11T01:27:33.375Z,3.9
2023-03-11T01:32:33.429Z,3.9
2023-03-11T01:37:33.408Z,3.9
2023-03-11T01:42:33.678Z,3.9
2023-03-11T01:47:33.374Z,3.9
2023-03-11T01:52:33.413Z,3.9
2023-03-11T01:57:33.424Z,3.8
2023-03-11T02:02:33.431Z,3.8
2023-03-11T02:07:33.391Z,3.8
2023-03-11T02:12:33.404Z,3.8
2023-03-11T02:17:33.425Z,3.7
2023-03-11T02:22:33.466Z,3.7
2023-03-11T02:27:33.397Z,3.7
2023-03-11T02:32:33.497Z,3.7
2023-03-11T02:37:33.417Z,3.6
2023-03-11T02:42:33.580Z,3.6
2023-03-11T02:47:33.456Z,3.6
2023-03-11T02:52:33.426Z,3.5
2023-03-11T02:57:33.438Z,3.5
2023-03-11T03:02:33.412Z,3.4
2023-03-11T03:07:33.412Z,3.5
2023-03-11T03:12:33.462Z,3.5
2023-03-11T03:17:33.464Z,3.5
2023-03-11T03:22:33.413Z,3.5
2023-03-11T03:27:33.420Z,3.5
2023-03-11T03:32:33.451Z,3.5
2023-03-11T03:37:33.425Z,3.5
2023-03-11T03:42:33.931Z,3.5
2023-03-11T03:47:33.413Z,3.5
2023-03-11T03:52:33.415Z,3.5
2023-03-11T03:57:33.516Z,3.5
2023-03-11T04:02:33.456Z,3.5
2023-03-11T04:07:33.408Z,3.5
2023-03-11T04:12:33.455Z,3.5
2023-03-11T04:17:33.448Z,3.5
2023-03-11T04:22:33.436Z,3.5
2023-03-11T04:27:33.416Z,3.5
2023-03-11T04:32:33.510Z,3.5
2023-03-11T04:37:33.455Z,3.5
2023-03-11T04:42:33.426Z,3.5
2023-03-11T04:47:33.428Z,3.4
2023-03-11T04:52:33.458Z,3.5
2023-03-11T04:57:33.465Z,3.4
2023-03-11T05:02:33.419Z,3.4
2023-03-11T05:07:33.416Z,3.4
2023-03-11T05:12:33.452Z,3.4
2023-03-11T05:17:33.452Z,3.4
2023-03-11T05:22:33.426Z,3.4
2023-03-11T05:27:33.442Z,3.4
2023-03-11T05:32:33.519Z,3.4
2023-03-11T05:37:33.461Z,3.4
2023-03-11T05:42:33.449Z,3.4
2023-03-11T05:47:33.422Z,3.4
2023-03-11T05:52:33.461Z,3.4
2023-03-11T05:57:33.451Z,3.4
2023-03-11T06:02:33.452Z,3.4
2023-03-11T06:07:33.425Z,3.4
2023-03-11T06:12:33.465Z,3.4
2023-03-11T06:17:33.465Z,3.4
2023-03-11T06:22:33.448Z,3.4
2023-03-11T06:27:33.430Z,3.3
2023-03-11T06:32:33.524Z,3.3
2023-03-11T06:37:33.466Z,3.4
2023-03-11T06:42:33.462Z,3.4
2023-03-11T06:47:33.454Z,3.4
2023-03-11T06:52:33.473Z,3.5
2023-03-11T06:57:33.486Z,3.5
2023-03-11T07:02:33.478Z,3.5
2023-03-11T07:07:33.476Z,3.4
2023-03-11T07:12:33.496Z,3.4
2023-03-11T07:17:33.503Z,3.4
2023-03-11T07:22:33.496Z,3.4
2023-03-11T07:27:33.473Z,3.4
2023-03-11T07:32:33.530Z,3.4
2023-03-11T07:37:33.495Z,3.4
2023-03-11T07:42:33.805Z,3.4
2023-03-11T07:47:33.471Z,3.4
2023-03-11T07:52:33.486Z,3.5
2023-03-11T07:57:33.515Z,3.5
2023-03-11T08:02:33.514Z,3.6
2023-03-11T08:07:33.480Z,3.6
2023-03-11T08:12:33.507Z,3.6
2023-03-11T08:17:33.517Z,3.7
2023-03-11T08:22:33.493Z,3.7
2023-03-11T08:27:33.485Z,3.8
2023-03-11T08:32:33.549Z,3.8
2023-03-11T08:37:33.506Z,3.9
2023-03-11T08:42:33.528Z,3.9
2023-03-11T08:47:33.480Z,3.9
2023-03-11T08:52:33.512Z,3.9
2023-03-11T08:57:33.509Z,4
2023-03-11T09:02:33.502Z,4
2023-03-11T09:07:33.490Z,4.1
2023-03-11T09:12:33.507Z,4.1
2023-03-11T09:17:33.546Z,4
2023-03-11T09:22:33.498Z,4.1
2023-03-11T09:27:33.514Z,4.2
2023-03-11T09:32:33.551Z,4.3
2023-03-11T09:37:33.572Z,4.3
2023-03-11T09:42:33.552Z,4.3
2023-03-11T09:47:33.499Z,4.3
2023-03-11T09:52:33.511Z,4.2
2023-03-11T09:57:33.625Z,4.3
2023-03-11T10:02:33.609Z,4.3
2023-03-11T10:07:33.507Z,4.3
2023-03-11T10:12:33.523Z,4.4
2023-03-11T10:17:33.531Z,4.3
2023-03-11T10:22:33.528Z,4.3
2023-03-11T10:27:33.516Z,4.4
2023-03-11T10:32:33.588Z,4.4
2023-03-11T10:37:48.175Z,4.4
2023-03-11T10:42:33.762Z,4.4
2023-03-11T10:47:33.634Z,4.4
2023-03-11T10:52:33.654Z,4.4
2023-03-11T10:57:33.791Z,4.4
2023-03-11T11:02:33.784Z,4.4
2023-03-11T11:07:33.781Z,4.3
2023-03-11T11:12:33.848Z,4.4
2023-03-11T11:17:33.919Z,4.6
2023-03-11T11:22:33.981Z,4.7
2023-03-11T11:27:34.085Z,4.8
2023-03-11T11:32:34.050Z,4.9
2023-03-11T11:37:33.881Z,4.9
2023-03-11T11:42:34.230Z,4.9
2023-03-11T11:47:34.011Z,5
2023-03-11T11:52:34.330Z,5
2023-03-11T11:57:33.873Z,5
2023-03-11T12:02:33.889Z,5
2023-03-11T12:07:33.859Z,5
2023-03-11T12:12:33.906Z,5
2023-03-11T12:17:33.871Z,5.1
2023-03-11T12:22:33.886Z,5.1
2023-03-11T12:27:33.864Z,5.1
2023-03-11T12:32:34.134Z,5.1
2023-03-11T12:37:33.872Z,5
2023-03-11T12:42:33.953Z,5
2023-03-11T12:47:35.664Z,4.9
2023-03-11T12:52:33.879Z,4.9
2023-03-11T12:57:33.882Z,5
2023-03-11T13:02:33.889Z,5.2
2023-03-11T13:07:33.846Z,5.4
2023-03-11T13:12:33.854Z,5.5
2023-03-11T13:17:33.876Z,5.6
2023-03-11T13:22:33.866Z,5.6
2023-03-11T13:27:33.843Z,5.5
2023-03-11T13:32:33.905Z,5.6
2023-03-11T13:37:33.862Z,5.6
2023-03-11T13:42:33.851Z,5.6
2023-03-11T13:47:33.862Z,5.6
2023-03-11T13:52:33.849Z,5.6
2023-03-11T13:57:33.858Z,5.7
2023-03-11T14:02:33.848Z,5.9
2023-03-11T14:07:33.880Z,6
2023-03-11T14:12:33.880Z,6.2
2023-03-11T14:17:33.898Z,6.4
2023-03-11T14:22:33.944Z,6.6
2023-03-11T14:27:33.895Z,6.8
2023-03-11T14:32:34.191Z,7
2023-03-11T14:37:33.954Z,7.1
2023-03-11T14:42:33.992Z,7
2023-03-11T14:47:33.950Z,7.1
2023-03-11T14:52:33.973Z,7
2023-03-11T14:57:34.024Z,7
2023-03-11T15:02:34.000Z,7.1
2023-03-11T15:07:34.669Z,7.3
2023-03-11T15:12:34.048Z,7.4
2023-03-11T15:17:41.052Z,7.5
2023-03-11T15:22:34.067Z,7.7
2023-03-11T15:27:34.117Z,7.9
2023-03-11T15:32:34.081Z,8
2023-03-11T15:37:34.117Z,7.9
2023-03-11T15:42:34.184Z,7.5
2023-03-11T15:47:34.112Z,7.5
2023-03-11T15:52:34.104Z,7.3
2023-03-11T15:57:34.122Z,7.1
2023-03-11T16:02:34.146Z,6.9
2023-03-11T16:07:39.729Z,6.8
2023-03-11T16:12:34.081Z,6.7
2023-03-11T16:17:47.003Z,6.6
2023-03-11T16:22:34.075Z,6.4
2023-03-11T16:27:34.080Z,6.3
2023-03-11T16:32:34.112Z,6.3
2023-03-11T16:37:34.089Z,6.2
2023-03-11T16:42:34.142Z,6.1
2023-03-11T16:47:34.060Z,6.1
2023-03-11T16:52:34.205Z,6
2023-03-11T16:57:34.099Z,5.8
2023-03-11T17:02:34.149Z,5.7
2023-03-11T17:07:34.077Z,5.6
2023-03-11T17:12:34.077Z,5.6
2023-03-11T17:17:34.087Z,5.5
2023-03-11T17:22:34.086Z,5.4
2023-03-11T17:27:34.079Z,5.3
2023-03-11T17:32:34.181Z,5.3
2023-03-11T17:37:34.084Z,5.2
2023-03-11T17:42:34.077Z,5.2
2023-03-11T17:47:34.074Z,5.1
2023-03-11T17:52:34.065Z,5
2023-03-11T17:57:42.896Z,4.9
2023-03-11T18:02:34.077Z,4.9
2023-03-11T18:07:34.039Z,4.8
2023-03-11T18:12:34.062Z,4.7
2023-03-11T18:17:34.167Z,4.6
2023-03-11T18:22:35.339Z,4.5
2023-03-11T18:27:34.049Z,4.4
2023-03-11T18:32:34.052Z,4.4
2023-03-11T18:37:34.083Z,4.4
2023-03-11T18:42:34.037Z,4.5
2023-03-11T18:47:34.060Z,4.5
2023-03-11T18:52:34.139Z,4.4
2023-03-11T18:57:34.062Z,4.4
2023-03-11T19:02:34.041Z,4.3
2023-03-11T19:07:34.048Z,4.2
2023-03-11T19:12:34.038Z,4.2
2023-03-11T19:17:34.080Z,4.2
2023-03-11T19:22:34.035Z,4.2
2023-03-11T19:27:34.042Z,4.1
2023-03-11T19:32:34.062Z,4.1
2023-03-11T19:37:34.083Z,4.1
2023-03-11T19:42:34.034Z,4.1
2023-03-11T19:47:34.049Z,4
2023-03-11T19:52:34.045Z,4
2023-03-11T19:57:34.127Z,3.9
2023-03-11T20:02:34.112Z,4
2023-03-11T20:07:34.106Z,3.9
2023-03-11T20:12:34.131Z,3.8
2023-03-11T20:17:34.104Z,3.8
2023-03-11T20:22:34.108Z,3.8
2023-03-11T20:27:34.065Z,3.8
2023-03-11T20:32:34.107Z,3.8
2023-03-11T20:37:34.164Z,3.8
2023-03-11T20:42:34.082Z,3.8
2023-03-11T20:47:34.029Z,3.7
2023-03-11T20:52:34.078Z,3.7
2023-03-11T20:57:34.147Z,3.6
2023-03-11T21:02:34.195Z,3.7
2023-03-11T21:07:34.118Z,3.6
2023-03-11T21:12:34.008Z,3.6
2023-03-11T21:17:34.156Z,3.6
2023-03-11T21:22:34.287Z,3.6
2023-03-11T21:27:34.081Z,3.6
2023-03-11T21:32:34.308Z,3.6
2023-03-11T21:37:34.195Z,3.5
2023-03-11T21:42:34.186Z,3.5
2023-03-11T21:47:34.219Z,3.4
2023-03-11T21:52:34.140Z,3.4
2023-03-11T21:57:34.104Z,3.4
2023-03-11T22:02:34.164Z,3.4
2023-03-11T22:07:34.090Z,3.4
2023-03-11T22:12:34.208Z,3.4
2023-03-11T22:17:34.267Z,3.5
2023-03-11T22:22:34.069Z,3.4
2023-03-11T22:27:34.062Z,3.4
2023-03-11T22:32:34.148Z,3.4
2023-03-11T22:37:34.171Z,3.4
2023-03-11T22:42:34.084Z,3.3
2023-03-11T22:47:34.107Z,3.3
2023-03-11T22:52:34.115Z,3.2
2023-03-11T22:57:34.116Z,3.2
2023-03-11T23:02:34.117Z,3.2
2023-03-11T23:07:34.090Z,3.2
2023-03-11T23:12:34.165Z,3.1
2023-03-11T23:17:34.121Z,3.1
2023-03-11T23:22:34.083Z,3.2
2023-03-11T23:27:34.107Z,3.1
2023-03-11T23:32:34.155Z,3.1
2023-03-11T23:37:34.101Z,3.1
2023-03-11T23:42:34.087Z,3.2
2023-03-11T23:47:34.088Z,3.1
2023-03-11T23:52:34.107Z,3
2023-03-11T23:57:34.109Z,3
